Metar Cercanos

 

LEPA - Palma De Mallorc, Spain
Distance from station: ONO 38km
Actualización: 12/12/2018 18:00
Despejado
Despejado
 Viento del ONO
Viento: ONO 9 km/h
Temperatura: 14°C
Rocío: 7°C
Humedad: 63%
Barómetro: 1017 hPa
Resumen: Despejado
Visibility: greater than 10 km
2018/12/12 17:00 LEPA 121700Z 29005KT 240V330 CAVOK 14/07 Q1017 NOSIG
LEMH - Mahon/Menorca Is, Spain
Distance from station: ENE 105km
Actualización: 12/12/2018 18:00
Few Clouds
Few Clouds
 Viento del ESE
Viento: ESE 7 km/h
Temperatura: 12°C
Rocío: 10°C
Humedad: 88%
Barómetro: 1017 hPa
Clouds: Few Clouds
Visibility: 10 km
Cloud details: Few Clouds 549 m
2018/12/12 17:00 LEMH 121700Z 11004KT 9999 FEW018 12/10 Q1017
 
LEIB - Ibiza/Es Codola, Spain
Distance from station: OSO 165km
Actualización: 12/12/2018 18:00
Few Clouds
Few Clouds
 Viento del varies
Viento: varies 4 km/h
Temperatura: 15°C
Rocío: 12°C
Humedad: 82%
Barómetro: 1018 hPa
Clouds: Few Clouds
Visibility: 10 km
Cloud details: Few Clouds 518 m
2018/12/12 17:00 LEIB 121700Z VRB02KT 9999 FEW017 15/12 Q1018 NOSIG
LEBL - Barcelona Airpor, Spain
Distance from station: NNO 225km
Actualización: 12/12/2018 18:00
Few Clouds
Few Clouds
 Viento del varies
Viento: varies 4 km/h
Temperatura: 13°C
Rocío: 10°C
Humedad: 82%
Barómetro: 1017 hPa
Clouds: Few Clouds
Visibility: 10 km
Cloud details: Few Clouds 579 m
2018/12/12 17:00 LEBL 121700Z VRB02KT 9999 FEW019 13/10 Q1017 NOSIG
 
LEVC - Valencia (civ/Mi, Spain
Distance from station: NO 188km
Actualización: 12/12/2018 18:00
Few Clouds
Few Clouds
 Viento del SO
Viento: SO 15 km/h
Temperatura: 15°C
Rocío: 8°C
Humedad: 63%
Barómetro: 1016 hPa
Clouds: Few Clouds
Visibility: 10 km
Cloud details: Few Clouds 762 m
2018/12/12 17:00 LEVC 121700Z 23008KT 9999 FEW025 15/08 Q1016 NOSIG
LEGE - Gerona/Costa Bra, Spain
Distance from station: N 276km
Actualización: 12/12/2018 18:00
Few Clouds
Few Clouds
 Viento del varies
Viento: varies 2 km/h
Temperatura: 10°C
Rocío: 10°C
Humedad: 100%
Barómetro: 1017 hPa
Clouds: Few Clouds
Visibility: 10 km
Cloud details: Few Clouds 1402 m
2018/12/12 17:00 LEGE 121700Z VRB01KT 9999 FEW046 10/10 Q1017
 
LEAL - Alicante/El Alte, Spain
Distance from station: OSO 344km
Actualización: 12/12/2018 18:00
Despejado
Despejado
 Viento del calm
Viento: Calma
Temperatura: 15°C
Rocío: 11°C
Humedad: 77%
Barómetro: 1017 hPa
Resumen: Despejado
Visibility: greater than 10 km
2018/12/12 17:00 LEAL 121700Z 00000KT CAVOK 15/11 Q1017 NOSIG
LEAM - Almeria Airport, Spain
Distance from station: SSO 56km
Actualización: 12/12/2018 18:00
Few Clouds
Few Clouds
 Viento del OSO
Viento: OSO 7 km/h
Temperatura: 16°C
Rocío: 10°C
Humedad: 68%
Barómetro: 1018 hPa
Clouds: Few Clouds
Visibility: 10 km
Cloud details: Few Clouds 610 m
2018/12/12 17:00 LEAM 121700Z 24004KT 210V270 9999 FEW020 16/10 Q1018
 
LEZG - Zaragoza (mil/Ci, Spain
Distance from station: NO 431km
Actualización: 12/12/2018 18:00
Few Clouds
Few Clouds
 Viento del OSO
Viento: OSO 7 km/h
Temperatura: 12°C
Rocío: 7°C
Humedad: 72%
Barómetro: 1016 hPa
Clouds: Few Clouds
Visibility: 10 km
Cloud details: Few Clouds 2438 m
2018/12/12 17:00 LEZG 121700Z 24004KT 210V270 9999 FEW080 12/07 Q1016
LEMD - Madrid/Barajas, Spain
Distance from station: ONO 234km
Actualización: 12/12/2018 18:00
Mist, Cubierto
Mist, Cubierto
 Viento del NNO
Viento: NNO 7 km/h
Temperatura: 7°C
Sensación frio: 6°C
Rocío: 6°C
Humedad: 93%
Barómetro: 1019 hPa
Resumen: Mist
Clouds: Cubierto
Visibility: 5 km
Cloud details: Few Clouds 549 m
Muy nuboso 762 m
Cubierto 914 m
2018/12/12 17:00 LEMD 121700Z 34004KT 310V010 5000 BR FEW018 BKN025 OVC030 07/06 Q1019 NOSIG
 
LEGR - Granada Airport, Spain
Distance from station: OSO 62km
Actualización: 12/12/2018 18:00
Few Clouds
Few Clouds
 Viento del varies
Viento: varies 2 km/h
Temperatura: 12°C
Rocío: 8°C
Humedad: 77%
Barómetro: 1021 hPa
Clouds: Few Clouds
Visibility: 10 km
Cloud details: Few Clouds 762 m
2018/12/12 17:00 LEGR 121700Z VRB01KT 9999 FEW025 12/08 Q1021
LEMG - Malaga (civ/Mil), Spain
Distance from station: OSO 227km
Actualización: 12/12/2018 18:00
Few Clouds
Few Clouds
 Viento del ONO
Viento: ONO 20 km/h
Temperatura: 17°C
Rocío: 9°C
Humedad: 59%
Barómetro: 1019 hPa
Clouds: Few Clouds
Visibility: 10 km
Cloud details: Few Clouds 610 m
2018/12/12 17:00 LEMG 121700Z 30011KT 9999 FEW020 17/09 Q1019 NOSIG
 
LEZL - Sevilla (civ/Mil, Spain
Distance from station: S 318km
Actualización: 12/12/2018 18:00
Muy nuboso
Muy nuboso
 Viento del SO
Viento: SO 11 km/h
Temperatura: 17°C
Rocío: 12°C
Humedad: 73%
Barómetro: 1021 hPa
Clouds: Muy nuboso
Visibility: 10 km
Cloud details: Muy nuboso 1280 m
2018/12/12 17:00 LEZL 121700Z 23006KT 9999 BKN042 17/12 Q1021 NOSIG
LEVT - Vitoria, Spain
Distance from station: NO 226km
Actualización: 12/12/2018 18:00
Muy nuboso
Muy nuboso
 Viento del SSO
Viento: SSO 17 km/h
Temperatura: 8°C
Sensación frio: 5°C
Rocío: 4°C
Humedad: 76%
Barómetro: 1017 hPa
Clouds: Muy nuboso
Visibility: 10 km
Cloud details: Parcialmente nuboso 914 m
Muy nuboso 1829 m
2018/12/12 17:00 LEVT 121700Z 21009KT 170V240 9999 SCT030 BKN060 08/04 Q1017
 
LEBB - Bilbao/Sondica, Spain
Distance from station: NNO 235km
Actualización: 12/12/2018 18:00
Few Clouds
Few Clouds
 Viento del SE
Viento: SE 7 km/h
Temperatura: 11°C
Rocío: 9°C
Humedad: 88%
Barómetro: 1016 hPa
Clouds: Few Clouds
Visibility: 10 km
Cloud details: Few Clouds 1676 m
2018/12/12 17:00 LEBB 121700Z 13004KT 100V160 9999 FEW055 11/09 Q1016 NOSIG
LESO - San Sebastian/Fu, Spain
Distance from station: N 231km
Actualización: 12/12/2018 18:00
Despejado
Despejado
 Viento del varies
Viento: varies 2 km/h
Temperatura: 12°C
Rocío: 9°C
Humedad: 82%
Barómetro: 1017 hPa
Resumen: Despejado
Visibility: greater than 10 km
2018/12/12 17:00 LESO 121700Z VRB01KT CAVOK 12/09 Q1017
 
LEVD - Valladolid(Mil/C, Spain
Distance from station: ONO 239km
Actualización: 12/12/2018 18:00
Mist, Cubierto
Mist, Cubierto
 Viento del SSE
Viento: SSE 9 km/h
Temperatura: 6°C
Sensación frio: 4°C
Rocío: 6°C
Humedad: 100%
Barómetro: 1018 hPa
Resumen: Mist
Clouds: Cubierto
Visibility: 4 km
Cloud details: Cubierto 152 m
2018/12/12 17:00 LEVD 121700Z 16005KT 120V180 4000 BR OVC005 06/06 Q1018
LESA - Salamanca (civ/M, Spain
Distance from station: ONO 349km
Actualización: 12/12/2018 18:00
Cubierto
Cubierto
 Viento del O
Viento: O 15 km/h
Temperatura: 7°C
Sensación frio: 4°C
Rocío: 5°C
Humedad: 87%
Barómetro: 1019 hPa
Clouds: Cubierto
Visibility: 8 km
Cloud details: Cubierto 610 m
2018/12/12 17:00 LESA 121700Z 26008KT 8000 OVC020 07/05 Q1019
 
LEXJ - Santander/Paraya, Spain
Distance from station: NNO 247km
Actualización: 12/12/2018 18:00
Despejado
Despejado
 Viento del ESE
Viento: ESE 4 km/h
Temperatura: 12°C
Rocío: 10°C
Humedad: 88%
Barómetro: 1015 hPa
Resumen: Despejado
Visibility: greater than 10 km
2018/12/12 17:00 LEXJ 121700Z 12002KT CAVOK 12/10 Q1015
LEAS - Asturias/Aviles, Spain
Distance from station: NO 214km
Actualización: 12/12/2018 18:00
Few Clouds
Few Clouds
 Viento del varies
Viento: varies 4 km/h
Temperatura: 10°C
Rocío: 8°C
Humedad: 88%
Barómetro: 1014 hPa
Clouds: Few Clouds
Visibility: 8 km
Cloud details: Few Clouds 610 m
2018/12/12 17:00 LEAS 121700Z VRB02KT 8000 FEW020 10/08 Q1014 NOSIG
 
LECO - La Coruna/Alvedr, Spain
Distance from station: ONO 222km
Actualización: 12/12/2018 18:00
Few Clouds
Few Clouds
 Viento del S
Viento: S 28 km/h, Racha: 54 km/h
Temperatura: 13°C
Rocío: 9°C
Humedad: 77%
Barómetro: 1012 hPa
Clouds: Few Clouds
Visibility: 10 km
Cloud details: Few Clouds 549 m
2018/12/12 17:00 LECO 121700Z 19015G29KT 150V230 9999 FEW018 13/09 Q1012 NOSIG
LEVX - Vigo/Peinador, Spain
Distance from station: O 214km
Actualización: 12/12/2018 18:00
Lluvia débil, Muy nuboso
Lluvia débil, Muy nuboso
 Viento del SSO
Viento: SSO 30 km/h
Temperatura: 12°C
Rocío: 10°C
Humedad: 88%
Barómetro: 1016 hPa
Resumen: Lluvia débil
Clouds: Muy nuboso
Visibility: 10 km
Cloud details: Muy nuboso 579 m
Muy nuboso 732 m
2018/12/12 17:00 LEVX 121700Z 20016KT 160V230 9999 -RA BKN019 BKN024 12/10 Q1016 TEMPO 3000 RA BKN010